sensor_id;sensor_type;location;lat;lon;timestamp;pressure;altitude;pressure_sealevel;temperature;humidity
43450;BME280;29041;42.266;23.110;2023-12-20T00:02:34;96260.97;;;4.83;68.53
43450;BME280;29041;42.266;23.110;2023-12-20T00:05:22;96257.28;;;4.64;68.17
43450;BME280;29041;42.266;23.110;2023-12-20T00:08:10;96275.31;;;4.82;68.93
43450;BME280;29041;42.266;23.110;2023-12-20T00:10:57;96270.63;;;4.48;69.49
43450;BME280;29041;42.266;23.110;2023-12-20T00:13:44;96266.78;;;4.90;69.05
43450;BME280;29041;42.266;23.110;2023-12-20T00:16:32;96259.47;;;5.12;68.89
43450;BME280;29041;42.266;23.110;2023-12-20T00:19:24;96248.00;;;5.96;66.30
43450;BME280;29041;42.266;23.110;2023-12-20T00:22:11;96247.22;;;5.61;66.29
43450;BME280;29041;42.266;23.110;2023-12-20T00:24:59;96260.22;;;5.22;68.41
43450;BME280;29041;42.266;23.110;2023-12-20T00:27:46;96249.44;;;5.48;65.58
43450;BME280;29041;42.266;23.110;2023-12-20T00:30:33;96246.88;;;5.33;67.29
43450;BME280;29041;42.266;23.110;2023-12-20T00:33:21;96254.44;;;5.90;65.68
43450;BME280;29041;42.266;23.110;2023-12-20T00:36:09;96248.84;;;5.17;66.28
43450;BME280;29041;42.266;23.110;2023-12-20T00:38:56;96235.78;;;5.20;66.89
43450;BME280;29041;42.266;23.110;2023-12-20T00:41:45;96238.50;;;5.84;66.79
43450;BME280;29041;42.266;23.110;2023-12-20T00:44:32;96242.38;;;5.68;65.23
43450;BME280;29041;42.266;23.110;2023-12-20T00:47:19;96236.63;;;5.05;66.72
43450;BME280;29041;42.266;23.110;2023-12-20T00:50:08;96235.16;;;5.34;68.67
43450;BME280;29041;42.266;23.110;2023-12-20T00:52:55;96237.47;;;5.40;68.69
43450;BME280;29041;42.266;23.110;2023-12-20T00:55:42;96211.47;;;5.27;67.35
43450;BME280;29041;42.266;23.110;2023-12-20T00:58:32;96236.91;;;5.04;68.65
43450;BME280;29041;42.266;23.110;2023-12-20T01:01:19;96226.00;;;5.05;68.32
43450;BME280;29041;42.266;23.110;2023-12-20T01:04:06;96221.44;;;5.11;67.35
43450;BME280;29041;42.266;23.110;2023-12-20T01:06:53;96218.31;;;5.44;66.83
43450;BME280;29041;42.266;23.110;2023-12-20T01:09:40;96217.47;;;5.48;67.31
43450;BME280;29041;42.266;23.110;2023-12-20T01:12:29;96207.72;;;6.32;64.97
43450;BME280;29041;42.266;23.110;2023-12-20T01:15:18;96209.50;;;5.78;65.38
43450;BME280;29041;42.266;23.110;2023-12-20T01:18:05;96215.41;;;4.90;68.10
43450;BME280;29041;42.266;23.110;2023-12-20T01:20:52;96188.63;;;4.76;68.74
43450;BME280;29041;42.266;23.110;2023-12-20T01:23:39;96207.22;;;4.81;68.03
43450;BME280;29041;42.266;23.110;2023-12-20T01:26:26;96180.94;;;3.73;72.12
43450;BME280;29041;42.266;23.110;2023-12-20T01:29:13;96191.78;;;4.12;70.84
43450;BME280;29041;42.266;23.110;2023-12-20T01:32:03;96177.97;;;4.81;68.24
43450;BME280;29041;42.266;23.110;2023-12-20T01:34:50;96175.06;;;4.07;69.49
43450;BME280;29041;42.266;23.110;2023-12-20T01:37:37;96168.63;;;4.23;68.52
43450;BME280;29041;42.266;23.110;2023-12-20T01:40:24;96162.03;;;4.10;69.51
43450;BME280;29041;42.266;23.110;2023-12-20T01:43:11;96168.59;;;4.28;68.46
43450;BME280;29041;42.266;23.110;2023-12-20T01:45:59;96160.53;;;5.04;66.91
43450;BME280;29041;42.266;23.110;2023-12-20T01:48:48;96156.78;;;5.45;65.01
43450;BME280;29041;42.266;23.110;2023-12-20T01:51:36;96152.31;;;4.45;66.61
43450;BME280;29041;42.266;23.110;2023-12-20T01:54:23;96155.94;;;5.50;64.63
43450;BME280;29041;42.266;23.110;2023-12-20T01:57:11;96154.63;;;5.47;63.53
43450;BME280;29041;42.266;23.110;2023-12-20T01:59:58;96137.63;;;5.08;64.02
43450;BME280;29041;42.266;23.110;2023-12-20T02:02:45;96137.75;;;4.88;65.61
43450;BME280;29041;42.266;23.110;2023-12-20T02:05:35;96136.00;;;5.13;65.48
43450;BME280;29041;42.266;23.110;2023-12-20T02:08:23;96135.19;;;4.72;66.90
43450;BME280;29041;42.266;23.110;2023-12-20T02:11:10;96121.16;;;4.62;65.46
43450;BME280;29041;42.266;23.110;2023-12-20T02:13:57;96118.19;;;4.08;68.50
43450;BME280;29041;42.266;23.110;2023-12-20T02:16:44;96128.47;;;4.35;68.66
43450;BME280;29041;42.266;23.110;2023-12-20T02:19:32;96123.47;;;4.73;66.19
43450;BME280;29041;42.266;23.110;2023-12-20T02:22:20;96118.72;;;5.10;64.37
43450;BME280;29041;42.266;23.110;2023-12-20T02:25:07;96108.56;;;4.22;67.40
43450;BME280;29041;42.266;23.110;2023-12-20T02:27:55;96114.09;;;4.31;67.71
43450;BME280;29041;42.266;23.110;2023-12-20T02:30:42;96109.94;;;5.10;64.60
43450;BME280;29041;42.266;23.110;2023-12-20T02:33:29;96110.91;;;5.24;64.45
43450;BME280;29041;42.266;23.110;2023-12-20T02:36:16;96089.16;;;5.12;63.51
43450;BME280;29041;42.266;23.110;2023-12-20T02:39:05;96107.38;;;4.49;66.11
43450;BME280;29041;42.266;23.110;2023-12-20T02:41:52;96098.16;;;4.31;67.02
43450;BME280;29041;42.266;23.110;2023-12-20T02:44:40;96095.91;;;3.93;68.66
43450;BME280;29041;42.266;23.110;2023-12-20T02:47:27;96087.81;;;4.29;67.59
43450;BME280;29041;42.266;23.110;2023-12-20T02:50:15;96089.84;;;4.43;67.50
43450;BME280;29041;42.266;23.110;2023-12-20T02:53:02;96087.19;;;5.22;64.31
43450;BME280;29041;42.266;23.110;2023-12-20T02:55:51;96085.47;;;5.66;61.98
43450;BME280;29041;42.266;23.110;2023-12-20T02:58:38;96083.84;;;5.41;62.57
43450;BME280;29041;42.266;23.110;2023-12-20T03:01:25;96085.41;;;5.13;63.74
43450;BME280;29041;42.266;23.110;2023-12-20T03:04:18;96084.31;;;5.48;62.48
43450;BME280;29041;42.266;23.110;2023-12-20T03:07:05;96085.47;;;5.07;62.57
43450;BME280;29041;42.266;23.110;2023-12-20T03:09:52;96077.41;;;4.83;63.94
43450;BME280;29041;42.266;23.110;2023-12-20T03:12:41;96072.50;;;4.01;67.10
43450;BME280;29041;42.266;23.110;2023-12-20T03:15:28;96073.38;;;4.46;66.58
43450;BME280;29041;42.266;23.110;2023-12-20T03:18:15;96058.63;;;5.04;64.59
43450;BME280;29041;42.266;23.110;2023-12-20T03:21:04;96066.38;;;5.30;63.29
43450;BME280;29041;42.266;23.110;2023-12-20T03:23:51;96073.78;;;4.19;66.96
43450;BME280;29041;42.266;23.110;2023-12-20T03:26:38;96070.19;;;4.84;64.49
43450;BME280;29041;42.266;23.110;2023-12-20T03:29:27;96070.50;;;4.82;65.26
43450;BME280;29041;42.266;23.110;2023-12-20T03:32:14;96066.25;;;5.11;63.74
43450;BME280;29041;42.266;23.110;2023-12-20T03:35:01;96056.00;;;5.28;63.06
43450;BME280;29041;42.266;23.110;2023-12-20T03:37:48;96038.28;;;5.18;62.52
43450;BME280;29041;42.266;23.110;2023-12-20T03:40:35;96054.44;;;3.97;68.60
43450;BME280;29041;42.266;23.110;2023-12-20T03:43:22;96050.06;;;3.67;69.94
43450;BME280;29041;42.266;23.110;2023-12-20T03:46:11;96051.19;;;4.11;68.10
43450;BME280;29041;42.266;23.110;2023-12-20T03:48:58;96050.09;;;4.67;66.12
43450;BME280;29041;42.266;23.110;2023-12-20T03:51:45;96055.16;;;4.19;67.96
43450;BME280;29041;42.266;23.110;2023-12-20T03:54:33;96049.38;;;4.56;67.12
43450;BME280;29041;42.266;23.110;2023-12-20T03:57:20;96049.47;;;4.81;64.32
43450;BME280;29041;42.266;23.110;2023-12-20T04:00:08;96056.16;;;4.33;66.84
43450;BME280;29041;42.266;23.110;2023-12-20T04:02:57;96048.31;;;4.02;67.11
43450;BME280;29041;42.266;23.110;2023-12-20T04:05:44;96044.22;;;4.70;64.21
43450;BME280;29041;42.266;23.110;2023-12-20T04:08:32;96052.84;;;3.96;65.23
43450;BME280;29041;42.266;23.110;2023-12-20T04:11:19;96050.38;;;4.66;63.76
43450;BME280;29041;42.266;23.110;2023-12-20T04:14:06;96043.16;;;4.26;64.91
43450;BME280;29041;42.266;23.110;2023-12-20T04:16:53;96044.44;;;3.79;66.31
43450;BME280;29041;42.266;23.110;2023-12-20T04:19:42;96034.91;;;3.68;66.04
43450;BME280;29041;42.266;23.110;2023-12-20T04:22:29;96033.44;;;4.01;65.15
43450;BME280;29041;42.266;23.110;2023-12-20T04:25:16;96026.09;;;3.77;66.25
43450;BME280;29041;42.266;23.110;2023-12-20T04:28:03;96028.44;;;3.94;65.74
43450;BME280;29041;42.266;23.110;2023-12-20T04:30:50;96033.72;;;4.00;66.19
43450;BME280;29041;42.266;23.110;2023-12-20T04:33:38;96026.53;;;4.00;66.45
43450;BME280;29041;42.266;23.110;2023-12-20T04:36:26;96018.41;;;4.31;64.44
43450;BME280;29041;42.266;23.110;2023-12-20T04:39:15;96012.75;;;3.98;66.00
43450;BME280;29041;42.266;23.110;2023-12-20T04:42:03;96007.41;;;4.53;65.75
43450;BME280;29041;42.266;23.110;2023-12-20T04:44:50;96018.75;;;4.19;66.00
43450;BME280;29041;42.266;23.110;2023-12-20T04:47:37;96011.84;;;4.18;65.99
43450;BME280;29041;42.266;23.110;2023-12-20T04:50:25;96001.22;;;4.58;64.89
43450;BME280;29041;42.266;23.110;2023-12-20T04:53:13;95992.25;;;4.09;67.12
43450;BME280;29041;42.266;23.110;2023-12-20T04:56:00;95996.47;;;4.15;65.80
43450;BME280;29041;42.266;23.110;2023-12-20T04:58:47;96003.09;;;3.57;65.48
43450;BME280;29041;42.266;23.110;2023-12-20T05:01:35;96006.28;;;3.49;66.84
43450;BME280;29041;42.266;23.110;2023-12-20T05:04:22;96004.13;;;3.61;66.54
43450;BME280;29041;42.266;23.110;2023-12-20T05:07:09;96004.44;;;3.44;67.22
43450;BME280;29041;42.266;23.110;2023-12-20T05:09:58;96005.91;;;3.81;65.47
43450;BME280;29041;42.266;23.110;2023-12-20T05:12:45;95996.63;;;3.74;64.88
43450;BME280;29041;42.266;23.110;2023-12-20T05:15:32;95992.81;;;4.45;64.02
43450;BME280;29041;42.266;23.110;2023-12-20T05:18:20;95988.88;;;4.38;64.12
43450;BME280;29041;42.266;23.110;2023-12-20T05:21:07;95978.66;;;3.55;66.32
43450;BME280;29041;42.266;23.110;2023-12-20T05:23:54;95975.00;;;4.01;64.25
43450;BME280;29041;42.266;23.110;2023-12-20T05:26:43;95977.44;;;4.42;63.80
43450;BME280;29041;42.266;23.110;2023-12-20T05:29:30;95959.75;;;4.22;63.35
43450;BME280;29041;42.266;23.110;2023-12-20T05:32:17;95976.28;;;3.54;64.58
43450;BME280;29041;42.266;23.110;2023-12-20T05:35:04;95981.44;;;3.19;66.13
43450;BME280;29041;42.266;23.110;2023-12-20T05:37:51;95959.91;;;3.26;65.90
43450;BME280;29041;42.266;23.110;2023-12-20T05:40:38;95972.19;;;3.77;64.20
43450;BME280;29041;42.266;23.110;2023-12-20T05:43:27;95953.97;;;3.55;64.52
43450;BME280;29041;42.266;23.110;2023-12-20T05:46:14;95971.19;;;4.18;64.19
43450;BME280;29041;42.266;23.110;2023-12-20T05:49:01;95963.09;;;3.88;63.99
43450;BME280;29041;42.266;23.110;2023-12-20T05:51:49;95952.50;;;3.83;63.19
43450;BME280;29041;42.266;23.110;2023-12-20T05:54:36;95950.34;;;3.90;63.08
43450;BME280;29041;42.266;23.110;2023-12-20T05:57:24;95950.31;;;4.01;62.80
43450;BME280;29041;42.266;23.110;2023-12-20T06:00:14;95944.22;;;3.29;63.61
43450;BME280;29041;42.266;23.110;2023-12-20T06:03:01;95964.25;;;3.77;63.63
43450;BME280;29041;42.266;23.110;2023-12-20T06:05:51;95947.41;;;3.31;63.55
43450;BME280;29041;42.266;23.110;2023-12-20T06:08:38;95962.34;;;3.83;62.17
43450;BME280;29041;42.266;23.110;2023-12-20T06:11:26;95959.53;;;3.63;63.86
43450;BME280;29041;42.266;23.110;2023-12-20T06:14:13;95960.38;;;3.54;64.15
43450;BME280;29041;42.266;23.110;2023-12-20T06:17:02;95963.09;;;3.88;63.58
43450;BME280;29041;42.266;23.110;2023-12-20T06:19:49;95959.13;;;3.20;65.33
43450;BME280;29041;42.266;23.110;2023-12-20T06:22:42;95964.34;;;3.56;66.36
43450;BME280;29041;42.266;23.110;2023-12-20T06:25:29;95975.94;;;3.71;65.90
43450;BME280;29041;42.266;23.110;2023-12-20T06:28:16;95963.56;;;4.45;62.47
43450;BME280;29041;42.266;23.110;2023-12-20T06:31:03;95965.09;;;4.12;63.40
43450;BME280;29041;42.266;23.110;2023-12-20T06:33:51;95951.59;;;3.53;65.92
43450;BME280;29041;42.266;23.110;2023-12-20T06:36:43;95950.06;;;3.92;66.42
43450;BME280;29041;42.266;23.110;2023-12-20T06:39:30;95957.59;;;5.18;61.84
43450;BME280;29041;42.266;23.110;2023-12-20T06:42:19;95959.25;;;4.55;61.90
43450;BME280;29041;42.266;23.110;2023-12-20T06:45:07;95946.94;;;4.64;62.71
43450;BME280;29041;42.266;23.110;2023-12-20T06:47:54;95950.38;;;5.23;60.76
43450;BME280;29041;42.266;23.110;2023-12-20T06:54:15;95945.44;;;5.60;61.97
43450;BME280;29041;42.266;23.110;2023-12-20T06:57:03;95934.47;;;4.89;61.86
43450;BME280;29041;42.266;23.110;2023-12-20T06:59:50;95934.00;;;4.82;60.90
43450;BME280;29041;42.266;23.110;2023-12-20T07:02:37;95923.50;;;4.66;60.60
43450;BME280;29041;42.266;23.110;2023-12-20T07:05:24;95935.06;;;5.10;59.88
43450;BME280;29041;42.266;23.110;2023-12-20T07:08:12;95924.75;;;4.05;63.01
43450;BME280;29041;42.266;23.110;2023-12-20T07:11:02;95929.50;;;4.13;63.45
43450;BME280;29041;42.266;23.110;2023-12-20T07:13:50;95928.09;;;3.81;65.45
43450;BME280;29041;42.266;23.110;2023-12-20T07:16:37;95921.72;;;4.22;62.52
43450;BME280;29041;42.266;23.110;2023-12-20T07:19:24;95922.91;;;5.28;60.46
43450;BME280;29041;42.266;23.110;2023-12-20T07:22:11;95911.19;;;4.75;60.21
43450;BME280;29041;42.266;23.110;2023-12-20T07:24:58;95914.31;;;4.53;60.61
43450;BME280;29041;42.266;23.110;2023-12-20T07:27:47;95909.66;;;4.69;61.26
43450;BME280;29041;42.266;23.110;2023-12-20T07:30:34;95905.28;;;5.56;59.67
43450;BME280;29041;42.266;23.110;2023-12-20T07:33:22;95908.44;;;4.56;61.98
43450;BME280;29041;42.266;23.110;2023-12-20T07:36:09;95905.31;;;4.49;62.06
43450;BME280;29041;42.266;23.110;2023-12-20T07:38:56;95901.16;;;4.38;62.72
43450;BME280;29041;42.266;23.110;2023-12-20T07:41:44;95898.03;;;4.31;63.46
43450;BME280;29041;42.266;23.110;2023-12-20T07:44:32;95895.06;;;3.97;64.41
43450;BME280;29041;42.266;23.110;2023-12-20T07:47:19;95895.75;;;4.48;62.48
43450;BME280;29041;42.266;23.110;2023-12-20T07:50:07;95870.00;;;4.43;63.12
43450;BME280;29041;42.266;23.110;2023-12-20T07:52:54;95889.16;;;5.23;61.65
43450;BME280;29041;42.266;23.110;2023-12-20T07:55:41;95896.38;;;4.00;64.30
43450;BME280;29041;42.266;23.110;2023-12-20T07:58:28;95892.81;;;5.03;61.71
43450;BME280;29041;42.266;23.110;2023-12-20T08:01:18;95882.47;;;6.27;58.22
43450;BME280;29041;42.266;23.110;2023-12-20T08:04:05;95888.16;;;5.19;59.64
43450;BME280;29041;42.266;23.110;2023-12-20T08:06:52;95878.47;;;5.48;59.05
43450;BME280;29041;42.266;23.110;2023-12-20T08:09:40;95877.38;;;4.81;61.42
43450;BME280;29041;42.266;23.110;2023-12-20T08:12:27;95885.88;;;5.32;60.73
43450;BME280;29041;42.266;23.110;2023-12-20T08:15:15;95881.00;;;4.90;60.99
43450;BME280;29041;42.266;23.110;2023-12-20T08:18:04;95867.78;;;5.53;60.85
43450;BME280;29041;42.266;23.110;2023-12-20T08:20:51;95873.00;;;4.37;64.27
43450;BME280;29041;42.266;23.110;2023-12-20T08:23:41;95870.97;;;5.06;62.22
43450;BME280;29041;42.266;23.110;2023-12-20T08:26:29;95868.31;;;5.06;64.00
43450;BME280;29041;42.266;23.110;2023-12-20T08:29:16;95858.09;;;4.36;64.70
43450;BME280;29041;42.266;23.110;2023-12-20T08:32:04;95857.47;;;5.46;62.32
43450;BME280;29041;42.266;23.110;2023-12-20T08:34:52;95844.72;;;5.62;63.02
43450;BME280;29041;42.266;23.110;2023-12-20T08:37:39;95850.91;;;4.95;62.67
43450;BME280;29041;42.266;23.110;2023-12-20T08:40:27;95846.00;;;4.24;65.63
43450;BME280;29041;42.266;23.110;2023-12-20T08:43:14;95855.91;;;4.72;65.45
43450;BME280;29041;42.266;23.110;2023-12-20T08:46:01;95836.72;;;6.19;61.40
43450;BME280;29041;42.266;23.110;2023-12-20T08:48:48;95831.47;;;5.95;59.48
43450;BME280;29041;42.266;23.110;2023-12-20T08:51:42;95830.72;;;5.56;61.31
43450;BME280;29041;42.266;23.110;2023-12-20T08:54:29;95828.06;;;6.89;58.38
43450;BME280;29041;42.266;23.110;2023-12-20T08:57:16;95806.19;;;7.28;56.69
43450;BME280;29041;42.266;23.110;2023-12-20T09:00:04;95811.94;;;6.94;58.06
43450;BME280;29041;42.266;23.110;2023-12-20T09:02:54;95793.44;;;6.09;58.18
43450;BME280;29041;42.266;23.110;2023-12-20T09:05:41;95792.16;;;6.39;58.76
43450;BME280;29041;42.266;23.110;2023-12-20T09:08:29;95790.47;;;7.63;55.90
43450;BME280;29041;42.266;23.110;2023-12-20T09:11:17;95781.63;;;7.54;56.59
43450;BME280;29041;42.266;23.110;2023-12-20T09:14:04;95774.00;;;7.11;56.28
43450;BME280;29041;42.266;23.110;2023-12-20T09:16:51;95769.47;;;6.83;56.76
43450;BME280;29041;42.266;23.110;2023-12-20T09:19:41;95747.19;;;7.02;57.05
43450;BME280;29041;42.266;23.110;2023-12-20T09:22:29;95763.31;;;7.47;57.04
43450;BME280;29041;42.266;23.110;2023-12-20T09:25:18;95742.94;;;7.52;57.78
43450;BME280;29041;42.266;23.110;2023-12-20T09:28:05;95747.09;;;8.44;54.08
43450;BME280;29041;42.266;23.110;2023-12-20T09:30:52;95738.81;;;8.94;53.17
43450;BME280;29041;42.266;23.110;2023-12-20T09:33:39;95726.59;;;8.30;52.09
43450;BME280;29041;42.266;23.110;2023-12-20T09:36:26;95730.97;;;7.94;54.25
43450;BME280;29041;42.266;23.110;2023-12-20T09:39:14;95729.66;;;8.15;54.84
43450;BME280;29041;42.266;23.110;2023-12-20T09:42:03;95733.31;;;7.28;55.74
43450;BME280;29041;42.266;23.110;2023-12-20T09:44:51;95729.31;;;8.70;54.35
43450;BME280;29041;42.266;23.110;2023-12-20T09:47:38;95718.94;;;8.46;53.76
43450;BME280;29041;42.266;23.110;2023-12-20T09:50:26;95718.50;;;7.67;56.56
43450;BME280;29041;42.266;23.110;2023-12-20T09:53:15;95713.94;;;7.08;59.32
43450;BME280;29041;42.266;23.110;2023-12-20T09:56:03;95709.00;;;7.75;57.35
43450;BME280;29041;42.266;23.110;2023-12-20T09:58:52;95691.59;;;7.63;58.13
43450;BME280;29041;42.266;23.110;2023-12-20T10:01:40;95687.75;;;7.70;57.83
43450;BME280;29041;42.266;23.110;2023-12-20T10:04:28;95686.50;;;8.70;55.78
43450;BME280;29041;42.266;23.110;2023-12-20T10:07:18;95663.84;;;7.05;60.47
43450;BME280;29041;42.266;23.110;2023-12-20T10:10:07;95650.44;;;7.65;58.30
43450;BME280;29041;42.266;23.110;2023-12-20T10:13:03;95654.03;;;8.23;56.65
43450;BME280;29041;42.266;23.110;2023-12-20T10:15:51;95648.19;;;7.81;57.80
43450;BME280;29041;42.266;23.110;2023-12-20T10:18:39;95617.25;;;7.11;60.17
43450;BME280;29041;42.266;23.110;2023-12-20T10:21:26;95621.34;;;7.32;59.64
43450;BME280;29041;42.266;23.110;2023-12-20T10:24:17;95618.19;;;8.99;56.79
43450;BME280;29041;42.266;23.110;2023-12-20T10:27:05;95606.97;;;9.06;55.97
43450;BME280;29041;42.266;23.110;2023-12-20T10:29:52;95601.47;;;10.32;51.28
43450;BME280;29041;42.266;23.110;2023-12-20T10:32:41;95606.00;;;8.58;55.67
43450;BME280;29041;42.266;23.110;2023-12-20T10:35:28;95592.88;;;8.39;57.70
43450;BME280;29041;42.266;23.110;2023-12-20T10:38:15;95592.63;;;8.09;57.91
43450;BME280;29041;42.266;23.110;2023-12-20T10:41:03;95588.00;;;7.92;59.34
43450;BME280;29041;42.266;23.110;2023-12-20T10:43:52;95573.03;;;7.82;60.13
43450;BME280;29041;42.266;23.110;2023-12-20T10:46:39;95570.31;;;8.14;59.80
43450;BME280;29041;42.266;23.110;2023-12-20T10:49:36;95558.81;;;9.71;54.26
43450;BME280;29041;42.266;23.110;2023-12-20T10:52:23;95546.34;;;9.01;54.84
43450;BME280;29041;42.266;23.110;2023-12-20T10:55:11;95533.69;;;10.87;51.29
43450;BME280;29041;42.266;23.110;2023-12-20T10:58:01;95545.75;;;9.61;54.84
43450;BME280;29041;42.266;23.110;2023-12-20T11:00:50;95548.88;;;9.07;55.69
43450;BME280;29041;42.266;23.110;2023-12-20T11:03:44;95547.94;;;8.85;57.10
43450;BME280;29041;42.266;23.110;2023-12-20T11:06:38;95529.03;;;8.72;58.94
43450;BME280;29041;42.266;23.110;2023-12-20T11:09:33;95531.09;;;8.76;58.33
43450;BME280;29041;42.266;23.110;2023-12-20T11:12:28;95518.81;;;8.92;58.58
43450;BME280;29041;42.266;23.110;2023-12-20T11:15:20;95515.56;;;9.43;57.03
43450;BME280;29041;42.266;23.110;2023-12-20T11:18:07;95511.03;;;9.17;56.02
43450;BME280;29041;42.266;23.110;2023-12-20T11:21:01;95499.13;;;10.85;52.09
43450;BME280;29041;42.266;23.110;2023-12-20T11:23:50;95491.47;;;10.75;51.16
43450;BME280;29041;42.266;23.110;2023-12-20T11:26:37;95496.06;;;11.54;50.39
43450;BME280;29041;42.266;23.110;2023-12-20T11:29:32;95475.63;;;12.80;47.00
43450;BME280;29041;42.266;23.110;2023-12-20T11:32:28;95471.78;;;11.04;51.22
43450;BME280;29041;42.266;23.110;2023-12-20T11:35:19;95458.53;;;11.82;50.45
43450;BME280;29041;42.266;23.110;2023-12-20T11:38:07;95458.91;;;12.46;46.01
43450;BME280;29041;42.266;23.110;2023-12-20T11:40:56;95444.97;;;12.16;48.42
43450;BME280;29041;42.266;23.110;2023-12-20T11:43:44;95445.41;;;11.31;48.67
43450;BME280;29041;42.266;23.110;2023-12-20T11:46:33;95440.31;;;11.17;50.11
43450;BME280;29041;42.266;23.110;2023-12-20T11:49:23;95428.78;;;12.85;45.67
43450;BME280;29041;42.266;23.110;2023-12-20T11:52:12;95421.78;;;12.96;46.23
43450;BME280;29041;42.266;23.110;2023-12-20T11:54:59;95432.75;;;10.52;51.51
43450;BME280;29041;42.266;23.110;2023-12-20T11:57:47;95433.44;;;12.03;49.36
43450;BME280;29041;42.266;23.110;2023-12-20T12:00:35;95420.91;;;10.87;52.46
43450;BME280;29041;42.266;23.110;2023-12-20T12:03:22;95408.47;;;12.31;48.30
43450;BME280;29041;42.266;23.110;2023-12-20T12:06:09;95422.59;;;10.91;51.78
43450;BME280;29041;42.266;23.110;2023-12-20T12:08:56;95411.22;;;11.07;51.26
43450;BME280;29041;42.266;23.110;2023-12-20T12:11:44;95403.34;;;10.56;53.27
43450;BME280;29041;42.266;23.110;2023-12-20T12:14:32;95401.41;;;11.36;50.97
43450;BME280;29041;42.266;23.110;2023-12-20T12:17:21;95384.66;;;12.90;47.71
43450;BME280;29041;42.266;23.110;2023-12-20T12:20:08;95390.31;;;12.84;46.57
43450;BME280;29041;42.266;23.110;2023-12-20T12:22:59;95395.72;;;10.79;52.93
43450;BME280;29041;42.266;23.110;2023-12-20T12:25:46;95396.72;;;11.45;52.20
43450;BME280;29041;42.266;23.110;2023-12-20T12:28:34;95381.59;;;11.65;50.50
43450;BME280;29041;42.266;23.110;2023-12-20T12:31:23;95372.50;;;11.45;51.64
43450;BME280;29041;42.266;23.110;2023-12-20T12:34:12;95377.66;;;11.25;50.83
43450;BME280;29041;42.266;23.110;2023-12-20T12:36:59;95374.56;;;12.42;48.69
43450;BME280;29041;42.266;23.110;2023-12-20T12:39:46;95373.94;;;11.67;50.08
43450;BME280;29041;42.266;23.110;2023-12-20T12:42:34;95373.88;;;11.39;51.29
43450;BME280;29041;42.266;23.110;2023-12-20T12:45:21;95372.47;;;11.70;51.00
43450;BME280;29041;42.266;23.110;2023-12-20T12:48:10;95371.81;;;10.53;54.54
43450;BME280;29041;42.266;23.110;2023-12-20T12:51:03;95361.28;;;10.93;53.04
43450;BME280;29041;42.266;23.110;2023-12-20T12:53:50;95356.03;;;11.22;53.42
43450;BME280;29041;42.266;23.110;2023-12-20T12:56:37;95355.75;;;9.89;55.70
43450;BME280;29041;42.266;23.110;2023-12-20T12:59:26;95343.25;;;11.06;53.47
43450;BME280;29041;42.266;23.110;2023-12-20T13:02:13;95345.75;;;11.11;53.86
43450;BME280;29041;42.266;23.110;2023-12-20T13:05:02;95329.91;;;11.72;50.84
43450;BME280;29041;42.266;23.110;2023-12-20T13:07:50;95332.25;;;12.87;48.60
43450;BME280;29041;42.266;23.110;2023-12-20T13:10:37;95329.66;;;11.77;50.61
43450;BME280;29041;42.266;23.110;2023-12-20T13:13:24;95333.25;;;11.81;51.22
43450;BME280;29041;42.266;23.110;2023-12-20T13:16:11;95331.00;;;11.83;51.03
43450;BME280;29041;42.266;23.110;2023-12-20T13:18:58;95321.72;;;11.68;50.75
43450;BME280;29041;42.266;23.110;2023-12-20T13:21:47;95329.19;;;11.87;50.34
43450;BME280;29041;42.266;23.110;2023-12-20T13:24:34;95335.88;;;10.45;54.50
43450;BME280;29041;42.266;23.110;2023-12-20T13:27:21;95331.84;;;10.18;55.42
43450;BME280;29041;42.266;23.110;2023-12-20T13:30:10;95335.44;;;10.22;56.33
43450;BME280;29041;42.266;23.110;2023-12-20T13:32:57;95336.22;;;10.22;56.53
43450;BME280;29041;42.266;23.110;2023-12-20T13:35:45;95332.53;;;9.51;58.86
43450;BME280;29041;42.266;23.110;2023-12-20T13:38:33;95325.47;;;9.16;60.72
43450;BME280;29041;42.266;23.110;2023-12-20T13:41:21;95324.47;;;11.19;54.94
43450;BME280;29041;42.266;23.110;2023-12-20T13:44:08;95313.28;;;10.12;55.90
43450;BME280;29041;42.266;23.110;2023-12-20T13:46:55;95331.97;;;10.21;57.36
43450;BME280;29041;42.266;23.110;2023-12-20T13:49:43;95332.38;;;9.68;58.72
43450;BME280;29041;42.266;23.110;2023-12-20T13:52:31;95330.25;;;9.32;60.19
43450;BME280;29041;42.266;23.110;2023-12-20T13:55:19;95332.78;;;8.98;62.25
43450;BME280;29041;42.266;23.110;2023-12-20T13:58:10;95321.22;;;8.68;63.05
43450;BME280;29041;42.266;23.110;2023-12-20T14:00:57;95330.31;;;9.53;59.29
43450;BME280;29041;42.266;23.110;2023-12-20T14:03:45;95321.81;;;9.51;59.65
43450;BME280;29041;42.266;23.110;2023-12-20T14:06:32;95317.84;;;8.97;61.66
43450;BME280;29041;42.266;23.110;2023-12-20T14:09:19;95322.72;;;9.76;58.55
43450;BME280;29041;42.266;23.110;2023-12-20T14:12:08;95311.44;;;9.19;62.14
43450;BME280;29041;42.266;23.110;2023-12-20T14:14:55;95324.94;;;8.93;63.43
43450;BME280;29041;42.266;23.110;2023-12-20T14:17:42;95322.19;;;8.72;63.53
43450;BME280;29041;42.266;23.110;2023-12-20T14:20:30;95326.69;;;8.24;65.95
43450;BME280;29041;42.266;23.110;2023-12-20T14:23:17;95332.84;;;8.07;67.73
43450;BME280;29041;42.266;23.110;2023-12-20T14:26:04;95332.13;;;9.10;64.34
43450;BME280;29041;42.266;23.110;2023-12-20T14:28:53;95314.97;;;9.32;61.41
43450;BME280;29041;42.266;23.110;2023-12-20T14:31:50;95318.16;;;8.96;63.08
43450;BME280;29041;42.266;23.110;2023-12-20T14:34:37;95320.50;;;9.57;61.08
43450;BME280;29041;42.266;23.110;2023-12-20T14:37:24;95318.59;;;8.98;61.80
43450;BME280;29041;42.266;23.110;2023-12-20T14:40:12;95307.53;;;9.80;60.11
43450;BME280;29041;42.266;23.110;2023-12-20T14:43:02;95297.91;;;10.00;57.92
43450;BME280;29041;42.266;23.110;2023-12-20T14:45:51;95300.88;;;9.65;58.90
43450;BME280;29041;42.266;23.110;2023-12-20T14:48:38;95301.66;;;8.85;61.46
43450;BME280;29041;42.266;23.110;2023-12-20T14:51:31;95297.03;;;9.03;61.38